Terminal Aerodrome Forecast
Issued by NWS

Home | Current Version | Previous Version | Text Only | Print | Product List | Glossary On
Versions: 1 2 3 4 5 6 7 8 9 10 11 12 13
000
FTUS46 KPDT 250520
TAFDLS
TAF
KDLS 250520Z 2506/2606 31010KT P6SM BKN060
     FM251600 31013KT P6SM SCT060 BKN200
     FM260000 31007KT P6SM -RA OVC035=

USA.gov is the U.S. government's official web portal to all federal, state and local government web resources and services.